Fort Stockton, Texas
Current Conditions -  °F | °C
As of 7:53 AM on Monday 22 Dec 2014 (Local Time) from KFST Reporting Station
Clear Clear  
Wind Chill: 56°   Ceiling: Unl
Heat Index: 56°   Visibility: 10mi
Dew Point: 29°   Wind: 17mph
Humidity: 36%   Direction: 230°SW
Pressure: 29.79"   Gusts: NA
Location:  30.89°N, 102.88°W
Report Text: KFST 221353Z AUTO 23015KT 10SM CLR 13/M02 A2979 RMK AO2 SLP058 T01331017
Loading
Personal Weather Stations






























Interactive Weather Map New forecast layout! Learn more

10-Day Weather Forecast

Advertisements
Track Severe Weather on mobile